Time;durP1;ratioP1;P1;durP2;ratioP2;P2;SDS_P1;SDS_P2;PMS_P1;PMS_P2;Temp;Humidity;BMP_temperature;BMP_pressure;BME280_temperature;BME280_humidity;BME280_pressure;Samples;Min_cycle;Max_cycle;Signal;HPM_P1;HPM_P2
2023/11/29 00:01:34;;;;;;;9.60;5.20;;;2.70;99.90;;;;;;4191596;28;20603;-61
2023/11/29 00:03:35;;;;;;;9.40;5.40;;;2.70;99.90;;;;;;4191482;28;20265;-60
2023/11/29 00:05:36;;;;;;;8.10;4.53;;;2.70;99.90;;;;;;4190940;28;20292;-60
2023/11/29 00:07:43;;;;;;;9.57;5.20;;;2.70;99.90;;;;;;4192595;28;20840;-58
2023/11/29 00:09:45;;;;;;;6.70;3.83;;;2.70;99.90;;;;;;4190771;28;20741;-58
2023/11/29 00:11:47;;;;;;;4.67;2.80;;;2.70;99.90;;;;;;4191583;28;20700;-59
2023/11/29 00:13:48;;;;;;;5.47;3.40;;;2.80;99.90;;;;;;4190816;28;20293;-58
2023/11/29 00:15:49;;;;;;;4.43;2.70;;;2.80;99.90;;;;;;4191851;28;20274;-58
2023/11/29 00:17:50;;;;;;;4.07;2.00;;;2.80;99.90;;;;;;4191118;28;20277;-60
2023/11/29 00:19:52;;;;;;;8.20;3.60;;;2.80;99.90;;;;;;4192167;28;21119;-61
2023/11/29 00:21:53;;;;;;;4.83;3.17;;;2.80;99.90;;;;;;4191867;28;20818;-60
2023/11/29 00:23:54;;;;;;;2.47;1.20;;;2.80;99.90;;;;;;4192085;28;20269;-58
2023/11/29 00:25:55;;;;;;;4.03;1.37;;;2.90;99.90;;;;;;4191782;28;20270;-59
2023/11/29 00:27:56;;;;;;;1.10;0.70;;;2.90;99.90;;;;;;4192198;28;20277;-58
2023/11/29 00:29:58;;;;;;;5.03;2.17;;;2.90;99.90;;;;;;4191852;28;20281;-57
2023/11/29 00:31:59;;;;;;;5.10;2.00;;;2.90;99.90;;;;;;4191733;28;20253;-60
2023/11/29 00:34:00;;;;;;;1.77;0.80;;;2.90;99.90;;;;;;4191412;28;20319;-56
2023/11/29 00:36:02;;;;;;;4.60;1.70;;;3.00;99.90;;;;;;4191929;28;20266;-58
2023/11/29 00:38:04;;;;;;;3.97;1.97;;;2.90;99.90;;;;;;4191005;28;20357;-55
2023/11/29 00:40:06;;;;;;;2.60;1.10;;;2.90;99.90;;;;;;4190987;28;20301;-56
2023/11/29 00:42:07;;;;;;;3.27;1.83;;;2.90;99.90;;;;;;4190636;28;20851;-58
2023/11/29 00:44:08;;;;;;;2.20;1.30;;;2.90;99.90;;;;;;4190612;28;20827;-59
2023/11/29 00:46:10;;;;;;;1.43;0.90;;;2.90;99.90;;;;;;4191442;28;20270;-60
2023/11/29 00:48:11;;;;;;;1.90;1.07;;;2.80;99.90;;;;;;4191101;28;20319;-61
2023/11/29 00:50:12;;;;;;;1.97;1.10;;;2.80;99.90;;;;;;4192177;28;20253;-60
2023/11/29 00:52:13;;;;;;;3.70;1.70;;;2.80;99.90;;;;;;4192038;28;20261;-60
2023/11/29 00:54:14;;;;;;;3.07;1.33;;;2.70;99.90;;;;;;4191336;28;20261;-59
2023/11/29 00:56:16;;;;;;;1.97;0.97;;;2.70;99.90;;;;;;4193087;28;20254;-58
2023/11/29 00:58:17;;;;;;;1.17;0.53;;;2.70;99.90;;;;;;4194185;28;20253;-61
2023/11/29 01:00:18;;;;;;;1.17;0.40;;;2.70;99.90;;;;;;4193631;28;20305;-58
2023/11/29 01:02:19;;;;;;;0.77;0.43;;;2.70;99.90;;;;;;4194313;28;20311;-59
2023/11/29 01:04:22;;;;;;;0.40;0.20;;;2.70;99.90;;;;;;4193943;28;20266;-58
2023/11/29 01:06:23;;;;;;;0.33;0.20;;;2.70;99.90;;;;;;4194821;28;20334;-61
2023/11/29 01:08:27;;;;;;;1.07;0.63;;;2.70;99.90;;;;;;4193434;28;20706;-57
2023/11/29 01:10:28;;;;;;;0.73;0.30;;;2.70;99.90;;;;;;4194370;28;20266;-59
2023/11/29 01:12:29;;;;;;;0.27;0.20;;;2.60;99.90;;;;;;4193863;28;20620;-55
2023/11/29 01:14:31;;;;;;;0.93;0.53;;;2.60;99.90;;;;;;4193548;28;20249;-57
2023/11/29 01:16:32;;;;;;;0.50;0.00;;;2.60;99.90;;;;;;4194314;28;20257;-58
2023/11/29 01:18:33;;;;;;;0.60;0.30;;;2.60;99.90;;;;;;4193118;28;20270;-59
2023/11/29 01:20:35;;;;;;;0.33;0.23;;;2.60;99.90;;;;;;4194268;28;20738;-58
2023/11/29 01:22:36;;;;;;;0.63;0.30;;;2.60;99.90;;;;;;4193576;28;20269;-57
2023/11/29 01:24:37;;;;;;;0.20;0.10;;;2.50;99.90;;;;;;4194797;28;20261;-58
2023/11/29 01:26:39;;;;;;;0.33;0.10;;;2.50;99.90;;;;;;4194433;28;20327;-59
2023/11/29 01:28:40;;;;;;;0.50;0.30;;;2.50;99.90;;;;;;4193801;28;20269;-59
2023/11/29 01:30:41;;;;;;;0.70;0.33;;;2.50;99.90;;;;;;4193087;28;20273;-56
2023/11/29 01:32:42;;;;;;;0.77;0.40;;;2.50;99.90;;;;;;4194416;28;20278;-58
2023/11/29 01:34:43;;;;;;;0.40;0.20;;;2.40;99.90;;;;;;4193823;28;20323;-59
2023/11/29 01:36:45;;;;;;;1.50;0.67;;;2.40;99.90;;;;;;4194294;28;20382;-58
2023/11/29 01:38:46;;;;;;;2.37;0.70;;;2.40;99.90;;;;;;4193339;28;20319;-58
2023/11/29 01:40:47;;;;;;;0.30;0.10;;;2.40;99.90;;;;;;4193007;28;20301;-59
2023/11/29 01:42:48;;;;;;;0.53;0.53;;;2.40;99.90;;;;;;4194311;28;20318;-60
2023/11/29 01:44:50;;;;;;;2.20;1.07;;;2.40;99.90;;;;;;4193371;28;20323;-52
2023/11/29 01:46:51;;;;;;;1.63;0.80;;;2.40;99.90;;;;;;4193755;28;20278;-58
2023/11/29 01:48:52;;;;;;;4.17;1.70;;;2.40;99.90;;;;;;4192660;28;20754;-58
2023/11/29 01:50:56;;;;;;;2.33;1.23;;;2.40;99.90;;;;;;4193787;28;20343;-58
2023/11/29 01:52:57;;;;;;;4.03;1.67;;;2.40;99.90;;;;;;4194063;28;20327;-59
2023/11/29 01:54:59;;;;;;;2.67;1.40;;;2.40;99.90;;;;;;4194288;28;20270;-58
2023/11/29 01:57:00;;;;;;;3.03;1.10;;;2.40;99.90;;;;;;4193442;28;20270;-57
2023/11/29 01:59:01;;;;;;;3.70;1.57;;;2.40;99.90;;;;;;4193384;28;20298;-55
2023/11/29 02:01:03;;;;;;;3.27;1.47;;;2.40;99.90;;;;;;4192780;28;20781;-58
2023/11/29 02:03:04;;;;;;;2.30;1.10;;;2.40;99.90;;;;;;4192736;28;20273;-59
2023/11/29 02:05:06;;;;;;;1.50;0.90;;;2.40;99.90;;;;;;4175579;28;20282;-59
2023/11/29 02:07:07;;;;;;;1.53;1.10;;;2.40;99.90;;;;;;4193122;28;20343;-56
2023/11/29 02:09:09;;;;;;;1.87;0.90;;;2.30;99.90;;;;;;4193848;28;20703;-59
2023/11/29 02:11:13;;;;;;;1.17;0.70;;;2.30;99.90;;;;;;4192739;28;20745;-58
2023/11/29 02:13:15;;;;;;;1.73;0.90;;;2.30;99.90;;;;;;4193540;28;20273;-58
2023/11/29 02:15:16;;;;;;;1.60;0.90;;;2.30;99.90;;;;;;4192110;28;20266;-60
2023/11/29 02:17:17;;;;;;;2.70;1.37;;;2.30;99.90;;;;;;4193829;28;20318;-61
2023/11/29 02:19:18;;;;;;;0.90;0.50;;;2.30;99.90;;;;;;4192938;28;20652;-59
2023/11/29 02:21:23;;;;;;;2.57;1.40;;;2.30;99.90;;;;;;4193277;28;20273;-59
2023/11/29 02:23:37;;;;;;;1.53;0.93;;;2.20;99.90;;;;;;4192370;28;20326;-58
2023/11/29 02:25:38;;;;;;;2.93;1.40;;;2.20;99.90;;;;;;4193789;28;20673;-60
2023/11/29 02:27:40;;;;;;;2.03;1.00;;;2.20;99.90;;;;;;4193046;28;20269;-59
2023/11/29 02:29:41;;;;;;;1.27;1.17;;;2.20;99.90;;;;;;4193254;28;20284;-56
2023/11/29 02:31:42;;;;;;;0.97;0.97;;;2.20;99.90;;;;;;4193210;28;20273;-58
2023/11/29 02:33:43;;;;;;;1.53;0.97;;;2.20;99.90;;;;;;4193193;28;20254;-59
2023/11/29 02:35:44;;;;;;;1.03;0.97;;;2.10;99.90;;;;;;4193311;28;20281;-56
2023/11/29 02:37:45;;;;;;;2.10;1.00;;;2.10;99.90;;;;;;4192571;28;20351;-60
2023/11/29 02:39:47;;;;;;;0.97;0.93;;;2.10;99.90;;;;;;4174750;28;20764;-57
2023/11/29 02:41:48;;;;;;;1.30;1.10;;;2.10;99.90;;;;;;4192457;28;20273;-59
2023/11/29 02:43:51;;;;;;;1.10;1.00;;;2.10;99.90;;;;;;4192441;28;20334;-60
2023/11/29 02:45:53;;;;;;;1.80;1.60;;;2.10;99.90;;;;;;4192654;28;20657;-59
2023/11/29 02:47:54;;;;;;;1.80;1.50;;;2.00;99.90;;;;;;4192897;28;20273;-58
2023/11/29 02:49:55;;;;;;;2.10;1.60;;;2.00;99.90;;;;;;4192448;28;20253;-59
2023/11/29 02:51:56;;;;;;;1.70;1.53;;;2.00;99.90;;;;;;4192849;28;20292;-58
2023/11/29 02:53:57;;;;;;;2.00;1.90;;;2.00;99.90;;;;;;4192238;28;20269;-59
2023/11/29 02:55:58;;;;;;;2.50;1.90;;;1.90;99.90;;;;;;4193590;28;20265;-56
2023/11/29 02:58:00;;;;;;;2.00;1.80;;;1.90;99.90;;;;;;4192211;28;20299;-56
2023/11/29 03:00:02;;;;;;;4.40;2.50;;;1.90;99.90;;;;;;4193185;28;20366;-58
2023/11/29 03:02:04;;;;;;;2.97;2.37;;;1.90;99.90;;;;;;4175493;28;20262;-58
2023/11/29 03:04:05;;;;;;;3.77;2.70;;;1.90;99.90;;;;;;4178478;28;20274;-55
2023/11/29 03:06:06;;;;;;;3.73;2.73;;;1.90;99.90;;;;;;4192640;28;20278;-59
2023/11/29 03:08:07;;;;;;;4.63;3.30;;;1.90;99.90;;;;;;4192782;28;20319;-57
2023/11/29 03:10:09;;;;;;;3.17;2.87;;;1.90;99.90;;;;;;4192921;28;20752;-56
2023/11/29 03:12:10;;;;;;;4.27;3.07;;;1.90;99.90;;;;;;4192746;28;20282;-57
2023/11/29 03:14:11;;;;;;;6.37;4.17;;;1.90;99.90;;;;;;4192246;28;20274;-59
2023/11/29 03:16:12;;;;;;;5.03;3.17;;;1.90;99.90;;;;;;4191911;28;20277;-57
2023/11/29 03:18:13;;;;;;;20.03;7.30;;;1.80;99.90;;;;;;4192250;28;20273;-56
2023/11/29 03:20:15;;;;;;;23.43;8.13;;;1.80;99.90;;;;;;4191346;28;20355;-57
2023/11/29 03:22:16;;;;;;;7.17;4.20;;;1.90;99.90;;;;;;4192133;28;20266;-54
2023/11/29 03:24:19;;;;;;;9.03;5.03;;;1.80;99.90;;;;;;4191519;28;20777;-56
2023/11/29 03:26:20;;;;;;;5.93;4.03;;;1.90;99.90;;;;;;4192432;28;20775;-59
2023/11/29 03:28:21;;;;;;;7.20;4.27;;;1.90;99.90;;;;;;4191312;28;20606;-58
2023/11/29 03:30:22;;;;;;;5.43;3.70;;;1.80;99.90;;;;;;4192319;28;20794;-58
2023/11/29 03:32:26;;;;;;;5.83;4.00;;;1.80;99.90;;;;;;4191272;28;20273;-57
2023/11/29 03:34:27;;;;;;;4.77;3.40;;;1.80;99.90;;;;;;4192038;28;21134;-58
2023/11/29 03:36:28;;;;;;;3.20;2.63;;;1.80;99.90;;;;;;4192277;28;20330;-56
2023/11/29 03:38:29;;;;;;;4.37;3.43;;;1.80;99.90;;;;;;4191460;28;20322;-58
2023/11/29 03:40:30;;;;;;;8.53;4.40;;;1.80;99.90;;;;;;4192433;28;20293;-58
2023/11/29 03:42:31;;;;;;;7.83;4.57;;;1.80;99.90;;;;;;4191787;28;20358;-58
2023/11/29 03:44:34;;;;;;;11.10;7.07;;;1.80;99.90;;;;;;4191355;28;20327;-54
2023/11/29 03:46:36;;;;;;;15.10;8.30;;;1.80;99.90;;;;;;4192041;28;20666;-57
2023/11/29 03:48:37;;;;;;;6.83;4.93;;;1.80;99.90;;;;;;4191277;28;21394;-53
2023/11/29 03:50:38;;;;;;;8.77;5.50;;;1.80;99.90;;;;;;4191123;28;20358;-57
2023/11/29 03:52:39;;;;;;;7.27;4.60;;;1.80;99.90;;;;;;4192506;28;20266;-58
2023/11/29 03:54:41;;;;;;;5.00;3.57;;;1.70;99.90;;;;;;4192054;28;20277;-57
2023/11/29 03:56:44;;;;;;;4.67;3.43;;;1.70;99.90;;;;;;4192860;28;20808;-56
2023/11/29 03:58:45;;;;;;;4.73;3.37;;;1.70;99.90;;;;;;4191258;28;20761;-58
2023/11/29 04:00:46;;;;;;;4.97;3.20;;;1.70;99.90;;;;;;4192817;28;20285;-58
2023/11/29 04:02:47;;;;;;;6.27;4.10;;;1.60;99.90;;;;;;4191381;28;20331;-60
2023/11/29 04:04:48;;;;;;;5.53;4.30;;;1.60;99.90;;;;;;4192753;28;20277;-56
2023/11/29 04:06:50;;;;;;;7.57;4.07;;;1.60;99.90;;;;;;4192148;28;20270;-59
2023/11/29 04:08:53;;;;;;;6.70;3.80;;;1.50;99.90;;;;;;4191657;28;20269;-57
2023/11/29 04:10:54;;;;;;;7.73;4.30;;;1.50;99.90;;;;;;4175922;28;20278;-59
2023/11/29 04:12:55;;;;;;;11.30;6.10;;;1.50;99.90;;;;;;4191681;28;20685;-58
2023/11/29 04:14:56;;;;;;;7.83;4.47;;;1.50;99.90;;;;;;4191204;28;20893;-58
2023/11/29 04:16:58;;;;;;;8.93;5.90;;;1.50;99.90;;;;;;4191894;28;20343;-58
2023/11/29 04:18:59;;;;;;;9.43;5.57;;;1.50;99.90;;;;;;4191184;28;20653;-57
2023/11/29 04:21:00;;;;;;;9.63;5.90;;;1.50;99.90;;;;;;4190190;28;20301;-58
2023/11/29 04:23:01;;;;;;;10.53;6.20;;;1.50;99.90;;;;;;4192889;28;20346;-55
2023/11/29 04:25:04;;;;;;;8.50;5.40;;;1.40;99.90;;;;;;4191094;28;21276;-59
2023/11/29 04:27:05;;;;;;;7.73;5.70;;;1.40;99.90;;;;;;4191927;28;20680;-59
2023/11/29 04:29:08;;;;;;;7.67;4.87;;;1.40;99.90;;;;;;4190617;28;20269;-58
2023/11/29 04:31:13;;;;;;;9.07;5.63;;;1.30;99.90;;;;;;4192878;28;20311;-59
2023/11/29 04:33:14;;;;;;;8.17;5.57;;;1.30;99.90;;;;;;4194789;28;20319;-58
2023/11/29 04:35:15;;;;;;;8.70;6.03;;;1.30;99.90;;;;;;4194741;28;20367;-58
2023/11/29 04:37:17;;;;;;;8.80;5.47;;;1.30;99.90;;;;;;4193095;28;21012;-55
2023/11/29 04:39:18;;;;;;;10.87;5.50;;;1.30;99.90;;;;;;4194756;28;20266;-55
2023/11/29 04:41:23;;;;;;;10.03;6.40;;;1.30;99.90;;;;;;4194291;28;20289;-59
2023/11/29 04:43:24;;;;;;;9.33;6.47;;;1.20;99.90;;;;;;4193967;28;20811;-60
2023/11/29 04:45:25;;;;;;;10.03;6.13;;;1.20;99.90;;;;;;4193374;28;20273;-60
2023/11/29 04:47:26;;;;;;;7.50;4.50;;;1.20;99.90;;;;;;4194759;28;20327;-58
2023/11/29 04:49:27;;;;;;;7.73;4.87;;;1.20;99.90;;;;;;4193529;28;20358;-58
2023/11/29 04:51:28;;;;;;;6.10;5.00;;;1.20;99.90;;;;;;4193642;28;20335;-57
2023/11/29 04:53:30;;;;;;;9.13;6.37;;;1.20;99.90;;;;;;4195370;28;20265;-60
2023/11/29 04:55:31;;;;;;;5.47;4.40;;;1.20;99.90;;;;;;4194313;28;20285;-58
2023/11/29 04:57:32;;;;;;;8.47;5.47;;;1.20;99.90;;;;;;4193761;28;20265;-57
2023/11/29 04:59:37;;;;;;;8.87;5.50;;;1.20;99.90;;;;;;4193429;28;20327;-58
2023/11/29 05:01:38;;;;;;;7.80;5.97;;;1.20;99.90;;;;;;4194231;28;20297;-57
2023/11/29 05:03:39;;;;;;;6.93;5.00;;;1.20;99.90;;;;;;4194289;28;20671;-56
2023/11/29 05:05:42;;;;;;;7.83;5.07;;;1.10;99.90;;;;;;4194567;28;20319;-56
2023/11/29 05:07:43;;;;;;;9.03;5.73;;;1.10;99.90;;;;;;4193251;28;20603;-59
2023/11/29 05:09:44;;;;;;;9.00;6.30;;;1.10;99.90;;;;;;4194648;28;20613;-60
2023/11/29 05:11:45;;;;;;;8.13;5.37;;;1.10;99.90;;;;;;4193992;28;20745;-57
2023/11/29 05:13:46;;;;;;;8.57;6.17;;;1.10;99.90;;;;;;4194471;28;20380;-56
2023/11/29 05:15:48;;;;;;;9.80;5.53;;;1.10;99.90;;;;;;4193989;28;20324;-56
2023/11/29 05:17:49;;;;;;;9.80;6.30;;;1.10;99.90;;;;;;4194424;28;20266;-57
2023/11/29 05:19:50;;;;;;;14.77;6.13;;;1.20;99.90;;;;;;4194188;28;20302;-60
2023/11/29 05:21:51;;;;;;;11.70;6.63;;;1.20;99.90;;;;;;4194487;28;20289;-58
2023/11/29 05:23:53;;;;;;;7.83;5.47;;;1.20;99.90;;;;;;4194512;28;20315;-57
2023/11/29 05:25:54;;;;;;;8.20;5.87;;;1.20;99.90;;;;;;4189930;28;20327;-57
2023/11/29 05:27:55;;;;;;;8.63;5.83;;;1.20;99.90;;;;;;4190614;28;20289;-58
2023/11/29 05:29:56;;;;;;;7.23;5.27;;;1.20;99.90;;;;;;4191334;28;20319;-57
2023/11/29 05:31:57;;;;;;;8.10;5.10;;;1.20;99.90;;;;;;4192557;28;20289;-53
2023/11/29 05:33:58;;;;;;;8.37;5.30;;;1.20;99.90;;;;;;4193518;28;20319;-56
2023/11/29 05:35:59;;;;;;;9.77;5.57;;;1.20;99.90;;;;;;4193605;28;20262;-55
2023/11/29 05:38:01;;;;;;;9.27;5.57;;;1.20;99.90;;;;;;4192825;28;20322;-58
2023/11/29 05:40:02;;;;;;;9.63;5.87;;;1.20;99.90;;;;;;4194068;28;20385;-58
2023/11/29 05:42:05;;;;;;;8.47;5.70;;;1.20;99.90;;;;;;4192829;28;20635;-57
2023/11/29 05:44:06;;;;;;;10.93;5.73;;;1.20;99.90;;;;;;4192406;28;20402;-61
2023/11/29 05:46:08;;;;;;;7.47;4.70;;;1.20;99.90;;;;;;4192454;28;20269;-56
2023/11/29 05:48:09;;;;;;;6.70;4.67;;;1.20;99.90;;;;;;4193269;28;20274;-59
2023/11/29 05:50:10;;;;;;;7.53;4.27;;;1.20;99.90;;;;;;4175294;28;20673;-60
2023/11/29 05:52:11;;;;;;;11.17;6.17;;;1.20;99.90;;;;;;4193786;28;20370;-59
2023/11/29 05:54:13;;;;;;;9.13;4.73;;;1.20;99.90;;;;;;4193800;28;20618;-58
2023/11/29 05:56:14;;;;;;;10.03;5.10;;;1.20;99.90;;;;;;4192962;28;20355;-59
2023/11/29 05:58:15;;;;;;;8.60;5.43;;;1.30;99.90;;;;;;4193199;28;20392;-60
2023/11/29 06:00:18;;;;;;;8.07;5.00;;;1.30;99.90;;;;;;4192946;28;20315;-54
2023/11/29 06:02:19;;;;;;;7.80;5.77;;;1.30;99.90;;;;;;4194529;28;20308;-58
2023/11/29 06:04:21;;;;;;;6.70;4.43;;;1.30;99.90;;;;;;4192411;28;20812;-59
2023/11/29 06:06:22;;;;;;;7.67;5.27;;;1.30;99.90;;;;;;4193433;28;20270;-57
2023/11/29 06:08:23;;;;;;;11.40;6.17;;;1.20;99.90;;;;;;4191988;28;20332;-56
2023/11/29 06:10:24;;;;;;;7.73;5.00;;;1.20;99.90;;;;;;4193905;28;20835;-59
2023/11/29 06:12:27;;;;;;;9.37;6.13;;;1.20;99.90;;;;;;4193007;28;20311;-57
2023/11/29 06:14:28;;;;;;;8.67;6.40;;;1.20;99.90;;;;;;4193451;28;20386;-57
2023/11/29 06:16:29;;;;;;;9.70;6.23;;;1.20;99.90;;;;;;4191748;28;20273;-56
2023/11/29 06:18:30;;;;;;;7.93;5.67;;;1.10;99.90;;;;;;4184590;28;20423;-57
2023/11/29 06:20:31;;;;;;;9.77;6.57;;;1.20;99.90;;;;;;4192326;28;20323;-55
2023/11/29 06:22:33;;;;;;;11.60;6.80;;;1.20;99.90;;;;;;4191993;28;20326;-58
2023/11/29 06:24:34;;;;;;;8.33;6.30;;;1.20;99.90;;;;;;4193481;28;20791;-58
2023/11/29 06:26:36;;;;;;;9.17;6.37;;;1.20;99.90;;;;;;4191945;28;20281;-58
2023/11/29 06:28:40;;;;;;;7.67;5.20;;;1.20;99.90;;;;;;4192816;28;20278;-60
2023/11/29 06:30:41;;;;;;;8.90;5.47;;;1.20;99.90;;;;;;4190420;28;20330;-60
2023/11/29 06:32:42;;;;;;;7.30;4.67;;;1.10;99.90;;;;;;4193782;28;20346;-58
2023/11/29 06:34:44;;;;;;;8.63;5.17;;;1.10;99.90;;;;;;4192552;28;20257;-58
2023/11/29 06:36:45;;;;;;;8.20;5.23;;;1.20;99.90;;;;;;4191406;28;20273;-59
2023/11/29 06:38:46;;;;;;;8.60;5.83;;;1.20;99.90;;;;;;4192564;28;20269;-57
2023/11/29 06:40:47;;;;;;;9.33;6.20;;;1.20;99.90;;;;;;4192758;28;20309;-58
2023/11/29 06:42:49;;;;;;;6.87;4.93;;;1.20;99.90;;;;;;4192636;28;20269;-61
2023/11/29 06:44:52;;;;;;;8.13;5.30;;;1.20;99.90;;;;;;4192658;28;20269;-59
2023/11/29 06:46:54;;;;;;;9.63;5.33;;;1.20;99.90;;;;;;4192422;28;20270;-60
2023/11/29 06:48:56;;;;;;;10.17;5.40;;;1.10;99.90;;;;;;4192027;28;20331;-58
2023/11/29 06:51:00;;;;;;;9.23;5.73;;;1.10;99.90;;;;;;4192677;28;20269;-59
2023/11/29 06:53:03;;;;;;;9.60;5.47;;;1.10;99.90;;;;;;4192309;28;20323;-59
2023/11/29 06:55:04;;;;;;;9.43;6.13;;;1.10;99.90;;;;;;4192214;28;20277;-58
2023/11/29 06:57:05;;;;;;;10.57;6.17;;;1.10;99.90;;;;;;4192643;28;20273;-61
2023/11/29 06:59:07;;;;;;;9.83;6.13;;;1.10;99.90;;;;;;4192653;28;20360;-58
2023/11/29 07:01:08;;;;;;;7.50;5.23;;;1.10;99.90;;;;;;4192823;28;20634;-58
2023/11/29 07:03:09;;;;;;;9.67;5.53;;;1.10;99.90;;;;;;4192676;28;20706;-58
2023/11/29 07:05:11;;;;;;;8.17;5.73;;;1.10;99.90;;;;;;4188811;28;20803;-60
2023/11/29 07:07:12;;;;;;;11.80;5.87;;;1.10;99.90;;;;;;4187108;28;20273;-60
2023/11/29 07:09:16;;;;;;;8.70;5.40;;;1.10;99.90;;;;;;4190522;28;20364;-57
2023/11/29 07:11:17;;;;;;;10.60;6.90;;;1.10;99.90;;;;;;4188582;28;20346;-58
2023/11/29 07:13:18;;;;;;;11.37;6.97;;;1.10;99.90;;;;;;4191315;28;20281;-59
2023/11/29 07:15:19;;;;;;;12.43;7.80;;;1.10;99.90;;;;;;4191883;28;20383;-60
2023/11/29 07:17:20;;;;;;;13.23;7.43;;;1.00;99.90;;;;;;4177806;28;20308;-59
2023/11/29 07:19:22;;;;;;;12.50;7.67;;;1.00;99.90;;;;;;4179641;28;20335;-55
2023/11/29 07:21:23;;;;;;;12.60;8.10;;;0.90;99.90;;;;;;4185130;28;20289;-57
2023/11/29 07:23:24;;;;;;;12.60;7.30;;;0.90;99.90;;;;;;4191710;28;20358;-56
2023/11/29 07:25:25;;;;;;;13.23;8.00;;;0.90;99.90;;;;;;4192494;28;20277;-57
2023/11/29 07:27:27;;;;;;;16.67;9.13;;;0.80;99.90;;;;;;4191780;28;20345;-59
2023/11/29 07:29:28;;;;;;;25.60;12.27;;;0.70;99.90;;;;;;4181759;28;20270;-57
2023/11/29 07:31:29;;;;;;;18.80;10.07;;;0.70;99.90;;;;;;4187235;28;20261;-56
2023/11/29 07:33:31;;;;;;;15.83;8.63;;;0.70;99.90;;;;;;4191890;28;20277;-56
2023/11/29 07:35:33;;;;;;;17.60;8.33;;;0.60;99.90;;;;;;4192190;28;20277;-57
2023/11/29 07:37:34;;;;;;;25.80;11.90;;;0.60;99.90;;;;;;4192943;28;20741;-58
2023/11/29 07:39:35;;;;;;;15.93;9.17;;;0.50;99.90;;;;;;4191379;28;20327;-57
2023/11/29 07:41:37;;;;;;;15.93;9.47;;;0.50;99.90;;;;;;4192848;28;20339;-57
2023/11/29 07:43:38;;;;;;;19.03;8.93;;;0.50;99.90;;;;;;4191717;28;20295;-60
2023/11/29 07:45:39;;;;;;;15.30;7.97;;;0.50;99.90;;;;;;4198325;28;20269;-58
2023/11/29 07:47:41;;;;;;;17.07;8.50;;;0.40;99.90;;;;;;4191704;28;20672;-58
2023/11/29 07:49:42;;;;;;;15.37;8.20;;;0.40;99.90;;;;;;4192799;28;21200;-60
2023/11/29 07:51:46;;;;;;;17.33;10.03;;;0.40;99.90;;;;;;4191629;28;20711;-59
2023/11/29 07:53:47;;;;;;;13.77;8.37;;;0.40;99.90;;;;;;4192115;28;20277;-58
2023/11/29 07:55:48;;;;;;;12.60;8.20;;;0.30;99.90;;;;;;4191922;28;20285;-60
2023/11/29 07:57:50;;;;;;;14.97;9.23;;;0.30;99.90;;;;;;4191208;28;20357;-59
2023/11/29 07:59:51;;;;;;;14.07;8.23;;;0.30;99.90;;;;;;4191486;28;20657;-60
2023/11/29 08:01:52;;;;;;;13.70;8.00;;;0.30;99.90;;;;;;4192122;28;20614;-59
2023/11/29 08:03:54;;;;;;;15.57;8.30;;;0.40;99.90;;;;;;4192494;28;20943;-57
2023/11/29 08:05:55;;;;;;;18.17;9.03;;;0.40;99.90;;;;;;4191112;28;20278;-57
2023/11/29 08:07:56;;;;;;;15.03;8.17;;;0.40;99.90;;;;;;4194940;28;20355;-59
2023/11/29 08:09:57;;;;;;;16.60;9.07;;;0.40;99.90;;;;;;4193950;28;20273;-57
2023/11/29 08:11:58;;;;;;;16.77;8.93;;;0.30;99.90;;;;;;4195164;28;20261;-57
2023/11/29 08:14:02;;;;;;;17.07;9.83;;;0.30;99.90;;;;;;4193865;28;20372;-58
2023/11/29 08:16:05;;;;;;;18.37;9.47;;;0.30;99.90;;;;;;4195396;28;20273;-59
2023/11/29 08:18:07;;;;;;;18.93;9.47;;;0.30;99.90;;;;;;4195251;28;20668;-55
2023/11/29 08:20:09;;;;;;;37.83;13.50;;;0.30;99.90;;;;;;4195045;28;20262;-61
2023/11/29 08:22:11;;;;;;;16.50;9.00;;;0.30;99.90;;;;;;4195092;28;20293;-60
2023/11/29 08:24:12;;;;;;;15.73;8.50;;;0.30;99.90;;;;;;4195469;28;20422;-56
2023/11/29 08:26:14;;;;;;;16.47;9.57;;;0.30;99.90;;;;;;4194999;28;20326;-58
2023/11/29 08:28:15;;;;;;;18.40;10.40;;;0.30;99.90;;;;;;4195433;28;20664;-58
2023/11/29 08:30:17;;;;;;;28.07;12.43;;;0.20;99.90;;;;;;4194713;28;20300;-58
2023/11/29 08:32:18;;;;;;;15.23;9.17;;;0.30;99.90;;;;;;4194731;28;20354;-60
2023/11/29 08:34:19;;;;;;;19.50;10.10;;;0.30;99.90;;;;;;4195028;28;20269;-56
2023/11/29 08:36:20;;;;;;;17.83;9.70;;;0.20;99.90;;;;;;4193865;28;20285;-58
2023/11/29 08:38:23;;;;;;;23.27;11.20;;;0.30;99.90;;;;;;4194490;28;20285;-58
2023/11/29 08:40:25;;;;;;;23.87;11.50;;;0.20;99.90;;;;;;4194527;28;20269;-58
2023/11/29 08:42:26;;;;;;;18.80;9.40;;;0.30;99.90;;;;;;4195555;28;20659;-57
2023/11/29 08:44:27;;;;;;;28.13;13.10;;;0.30;99.90;;;;;;4194507;28;20816;-60
2023/11/29 08:46:28;;;;;;;18.33;10.60;;;0.30;99.90;;;;;;4194846;28;20633;-51
2023/11/29 08:48:29;;;;;;;19.37;10.03;;;0.30;99.90;;;;;;4193020;28;20277;-60
2023/11/29 08:50:31;;;;;;;15.00;9.23;;;0.30;99.90;;;;;;4195002;28;20253;-58
2023/11/29 08:52:32;;;;;;;23.47;10.47;;;0.30;99.90;;;;;;4191524;28;20327;-59
2023/11/29 08:54:33;;;;;;;31.87;13.40;;;0.40;99.90;;;;;;4195415;28;20335;-58
2023/11/29 08:56:35;;;;;;;26.03;12.37;;;0.40;99.90;;;;;;4194776;28;20257;-58
2023/11/29 08:58:36;;;;;;;26.53;12.70;;;0.40;99.90;;;;;;4190393;28;20270;-59
2023/11/29 09:00:41;;;;;;;29.27;13.70;;;0.50;99.90;;;;;;4178292;28;20726;-58
2023/11/29 09:02:42;;;;;;;98.77;28.30;;;0.50;99.90;;;;;;4194102;28;20342;-59
2023/11/29 09:04:44;;;;;;;92.63;28.77;;;0.50;99.90;;;;;;4194640;28;20273;-56
2023/11/29 09:06:45;;;;;;;65.90;24.50;;;0.50;99.90;;;;;;4193761;28;20265;-57
2023/11/29 09:08:47;;;;;;;39.60;16.27;;;0.60;99.90;;;;;;4193636;28;20353;-58
2023/11/29 09:10:48;;;;;;;21.67;11.20;;;0.60;99.90;;;;;;4191559;28;20331;-57
2023/11/29 09:12:49;;;;;;;16.30;7.87;;;0.60;99.90;;;;;;4193708;28;20351;-60
2023/11/29 09:14:52;;;;;;;15.67;8.37;;;0.70;99.90;;;;;;4193050;28;20297;-58
2023/11/29 09:16:54;;;;;;;13.67;8.03;;;0.70;99.90;;;;;;4193973;28;20285;-57
2023/11/29 09:18:55;;;;;;;15.60;8.07;;;0.80;99.90;;;;;;4193451;28;20330;-60
2023/11/29 09:20:57;;;;;;;21.30;11.07;;;0.70;99.90;;;;;;4195091;28;20351;-59
2023/11/29 09:22:58;;;;;;;34.97;15.90;;;0.80;99.90;;;;;;4193011;28;20323;-59
2023/11/29 09:24:59;;;;;;;21.03;10.73;;;0.80;99.90;;;;;;4193979;28;20319;-60
2023/11/29 09:27:00;;;;;;;28.30;13.30;;;0.80;99.90;;;;;;4194072;28;20324;-60
2023/11/29 09:29:02;;;;;;;35.63;14.30;;;0.80;99.90;;;;;;4194838;28;20323;-58
2023/11/29 09:31:05;;;;;;;41.03;17.50;;;0.80;99.90;;;;;;4193237;28;20289;-55
2023/11/29 09:33:07;;;;;;;25.33;11.43;;;0.80;99.90;;;;;;4194573;28;20270;-59
2023/11/29 09:35:08;;;;;;;27.30;12.90;;;0.90;99.90;;;;;;4193769;28;20338;-58
2023/11/29 09:37:09;;;;;;;47.57;20.93;;;0.80;99.90;;;;;;4192694;28;20815;-59
2023/11/29 09:39:15;;;;;;;21.17;11.47;;;0.70;99.90;;;;;;4193835;28;20668;-55
2023/11/29 09:41:17;;;;;;;16.17;8.50;;;0.70;99.90;;;;;;4192685;28;20664;-57
2023/11/29 09:43:18;;;;;;;21.27;10.77;;;0.70;99.90;;;;;;4192855;28;20285;-53
2023/11/29 09:45:25;;;;;;;20.60;10.37;;;0.70;99.90;;;;;;4189422;28;20285;-56
2023/11/29 09:47:26;;;;;;;30.97;14.03;;;0.60;99.90;;;;;;4194272;28;20285;-58
2023/11/29 09:49:28;;;;;;;20.80;10.17;;;0.60;99.90;;;;;;4193027;28;20339;-57
2023/11/29 09:51:30;;;;;;;17.90;9.50;;;0.60;99.90;;;;;;4194072;28;20744;-56
2023/11/29 09:53:32;;;;;;;20.23;11.07;;;0.60;99.90;;;;;;4191373;28;20261;-56
2023/11/29 09:55:33;;;;;;;19.17;9.77;;;0.60;99.90;;;;;;4192992;28;20815;-61
2023/11/29 09:57:35;;;;;;;18.20;10.93;;;0.70;99.90;;;;;;4192944;28;20346;-59
2023/11/29 09:59:36;;;;;;;16.40;9.23;;;0.70;99.90;;;;;;4194059;28;20258;-59
2023/11/29 10:01:43;;;;;;;18.33;9.50;;;0.70;99.90;;;;;;4175024;28;20335;-57
2023/11/29 10:04:00;;;;;;;19.47;10.50;;;0.60;99.90;;;;;;4193588;28;20257;-57
2023/11/29 10:06:03;;;;;;;19.63;10.60;;;0.60;99.90;;;;;;4196469;28;20616;-58
2023/11/29 10:08:06;;;;;;;20.67;11.40;;;0.60;99.90;;;;;;4183540;28;20681;-56
2023/11/29 10:10:10;;;;;;;16.30;9.47;;;0.50;99.90;;;;;;4177707;28;20320;-57
2023/11/29 10:12:12;;;;;;;27.30;10.50;;;0.40;99.90;;;;;;4187495;28;20327;-56
2023/11/29 10:14:13;;;;;;;22.10;10.43;;;0.40;99.90;;;;;;4173277;28;20665;-56
2023/11/29 10:16:20;;;;;;;19.03;9.30;;;0.30;99.90;;;;;;4192638;28;20262;-54
2023/11/29 10:18:21;;;;;;;18.77;9.80;;;0.20;99.90;;;;;;4188187;28;20299;-57
2023/11/29 10:20:26;;;;;;;19.50;9.53;;;0.10;99.90;;;;;;4187529;28;20667;-60
2023/11/29 10:22:27;;;;;;;19.47;10.67;;;0.00;99.90;;;;;;4185950;28;20286;-57
2023/11/29 10:24:28;;;;;;;23.87;11.60;;;0.00;99.90;;;;;;4184095;28;21058;-59
2023/11/29 10:26:32;;;;;;;23.90;12.83;;;-0.10;99.90;;;;;;4193427;28;20273;-57
2023/11/29 10:28:33;;;;;;;26.37;13.73;;;-0.10;99.90;;;;;;4191799;28;20273;-58
2023/11/29 10:30:34;;;;;;;28.20;13.20;;;-0.10;99.90;;;;;;4193941;28;20327;-58
2023/11/29 10:32:37;;;;;;;24.10;12.63;;;0.00;99.90;;;;;;4192532;28;20273;-58
2023/11/29 10:34:38;;;;;;;24.50;13.13;;;0.00;99.90;;;;;;4193730;28;20265;-59
2023/11/29 10:36:40;;;;;;;26.83;14.40;;;0.00;99.90;;;;;;4192358;28;20423;-59